Time;durP1;ratioP1;P1;durP2;ratioP2;P2;SDS_P1;SDS_P2;PMS_P1;PMS_P2;Temp;Humidity;BMP_temperature;BMP_pressure;BME280_temperature;BME280_humidity;BME280_pressure;Samples;Min_cycle;Max_cycle;Signal;HPM_P1;HPM_P2
2024/03/11 00:00:35;;;;;;;5.63;3.53;;;;;;;-145.63;37.01;39094.66;5031872;28;20029;-68
2024/03/11 00:03:08;;;;;;;7.63;3.33;;;;;;;-145.63;36.88;39075.09;5043974;28;20508;-67
2024/03/11 00:05:36;;;;;;;4.68;3.63;;;;;;;-145.63;37.01;39079.00;5056130;28;20366;-67
2024/03/11 00:08:08;;;;;;;5.85;2.95;;;;;;;-145.63;37.16;39092.69;5053347;28;20034;-67
2024/03/11 00:10:35;;;;;;;7.35;4.05;;;;;;;-145.63;36.80;39108.34;5038025;28;20029;-68
2024/03/11 00:13:17;;;;;;;8.65;3.67;;;;;;;-145.63;37.08;39114.22;5043014;28;20030;-66
2024/03/11 00:16:02;;;;;;;5.95;3.67;;;;;;;-145.63;37.36;39116.16;5040723;28;20029;-67
2024/03/11 00:18:36;;;;;;;8.25;4.03;;;;;;;-145.63;37.15;39135.72;5039462;28;20048;-67
2024/03/11 00:24:35;;;;;;;6.50;3.97;;;;;;;-145.63;37.58;39075.09;5031481;28;20045;-68
2024/03/11 00:27:08;;;;;;;6.32;3.83;;;;;;;-145.63;37.25;39106.38;5036548;28;20034;-66
2024/03/11 00:30:08;;;;;;;7.10;3.80;;;;;;;-145.63;37.86;39086.81;5036424;28;20037;-65
2024/03/11 00:32:38;;;;;;;9.10;4.10;;;;;;;-145.63;37.31;39118.13;5035744;28;20517;-66
2024/03/11 00:35:16;;;;;;;9.13;4.13;;;;;;;-145.63;37.95;39102.47;5036966;28;20053;-65
2024/03/11 00:37:42;;;;;;;9.52;4.05;;;;;;;-145.63;37.86;39106.38;5036310;28;20339;-65
2024/03/11 00:40:18;;;;;;;10.00;4.15;;;;;;;-145.63;38.63;39079.00;5036804;28;20036;-67
2024/03/11 00:42:53;;;;;;;7.70;4.03;;;;;;;-145.63;39.07;39071.19;5036519;28;20122;-67
2024/03/11 00:45:30;;;;;;;5.30;3.73;;;;;;;-145.63;38.94;39096.59;5036825;28;20029;-67
2024/03/11 00:47:56;;;;;;;9.60;4.85;;;;;;;-145.63;38.53;39104.44;5035965;28;20064;-67
2024/03/11 00:50:33;;;;;;;8.10;3.85;;;;;;;-145.63;38.55;39080.97;5036708;28;20439;-66
2024/03/11 00:53:41;;;;;;;8.90;3.95;;;;;;;-145.63;39.13;39063.34;5037149;28;20040;-67
2024/03/11 00:56:26;;;;;;;7.13;3.88;;;;;;;-145.63;39.69;39114.22;5036500;28;20045;-66
2024/03/11 00:58:55;;;;;;;9.43;4.38;;;;;;;-145.63;39.99;39088.78;5036810;28;20043;-65
2024/03/11 01:01:32;;;;;;;9.02;4.00;;;;;;;-145.63;40.16;39110.28;5056574;28;20477;-67
2024/03/11 01:04:21;;;;;;;7.95;4.25;;;;;;;-145.63;39.52;39086.81;5027475;28;20377;-66
2024/03/11 01:07:04;;;;;;;9.07;3.92;;;;;;;-145.63;39.92;39123.97;5056116;28;20080;-66
2024/03/11 01:09:42;;;;;;;6.70;4.00;;;;;;;-145.63;39.96;39088.78;5045002;28;20056;-65
2024/03/11 01:12:07;;;;;;;10.27;4.80;;;;;;;-145.63;40.23;39122.03;5052554;28;20040;-66
2024/03/11 01:14:36;;;;;;;8.00;3.97;;;;;;;-145.63;40.42;39079.00;5056049;28;20018;-66
2024/03/11 01:17:04;;;;;;;8.20;4.10;;;;;;;-145.63;40.81;39059.44;5039454;28;20033;-67
2024/03/11 01:19:54;;;;;;;6.47;4.20;;;;;;;-145.63;40.51;39082.91;5036651;28;20386;-68
2024/03/11 01:22:23;;;;;;;8.43;4.28;;;;;;;-145.63;40.93;39098.56;5016900;28;20030;-67
2024/03/11 01:24:49;;;;;;;10.65;4.20;;;;;;;-145.63;40.59;39110.28;5034028;28;20044;-68
2024/03/11 01:27:25;;;;;;;11.95;5.18;;;;;;;-145.63;41.14;39092.69;5038500;28;20033;-67
2024/03/11 01:29:57;;;;;;;6.68;4.18;;;;;;;-145.63;40.83;39102.47;5037277;28;20033;-67
2024/03/11 01:32:28;;;;;;;10.75;4.18;;;;;;;-145.63;41.32;39079.00;5036248;28;20036;-67
2024/03/11 01:34:58;;;;;;;6.95;4.28;;;;;;;-145.63;40.79;39073.13;5034112;28;20490;-68
2024/03/11 01:37:26;;;;;;;7.65;4.03;;;;;;;-145.63;41.10;39094.66;5034580;28;20042;-67
2024/03/11 01:40:01;;;;;;;7.93;4.47;;;;;;;-145.63;41.13;39114.22;5035357;28;20042;-68
2024/03/11 01:42:42;;;;;;;5.88;3.83;;;;;;;-145.63;41.42;39086.81;5048611;28;20036;-67
2024/03/11 01:45:17;;;;;;;8.23;4.05;;;;;;;-145.63;41.29;39122.03;5041689;28;20036;-67
2024/03/11 01:47:59;;;;;;;7.70;4.30;;;;;;;-145.63;41.71;39118.13;5034649;28;20103;-67
2024/03/11 01:50:40;;;;;;;6.80;3.95;;;;;;;-145.63;41.63;39106.38;5035478;28;20526;-66
2024/03/11 01:53:06;;;;;;;6.82;4.32;;;;;;;-145.63;41.23;39086.81;5035773;28;20406;-67
2024/03/11 01:55:38;;;;;;;6.90;4.50;;;;;;;-145.63;42.16;39100.50;5035359;28;20437;-66
2024/03/11 01:58:09;;;;;;;5.97;4.20;;;;;;;-145.63;41.58;39108.34;5035517;28;20036;-66
2024/03/11 02:01:00;;;;;;;7.30;3.90;;;;;;;-145.63;41.56;39086.81;5017813;28;20021;-67
2024/03/11 02:03:31;;;;;;;10.05;4.55;;;;;;;-145.63;42.08;39116.16;5033224;28;20033;-66
2024/03/11 02:06:17;;;;;;;5.63;3.85;;;;;;;-145.63;42.18;39073.13;5030795;28;20056;-65
2024/03/11 02:08:45;;;;;;;5.00;3.80;;;;;;;-145.63;42.35;39116.16;5046838;28;20029;-66
2024/03/11 02:11:26;;;;;;;9.60;4.07;;;;;;;-145.63;42.66;39055.53;5035770;28;20028;-67
2024/03/11 02:13:59;;;;;;;7.43;4.43;;;;;;;-145.63;42.56;39084.88;5034860;28;20471;-66
2024/03/11 02:16:43;;;;;;;5.88;3.95;;;;;;;-145.63;42.51;39094.66;5035251;28;20100;-65
2024/03/11 02:19:43;;;;;;;7.22;4.10;;;;;;;-145.63;42.43;39096.59;5014888;28;20044;-66
2024/03/11 02:22:14;;;;;;;7.70;4.32;;;;;;;-145.63;42.71;39071.19;5030325;28;20038;-66
2024/03/11 02:24:40;;;;;;;7.07;4.25;;;;;;;-145.63;43.06;39055.53;5062838;28;20029;-66
2024/03/11 02:27:18;;;;;;;6.90;3.88;;;;;;;-145.63;42.51;39082.91;5033226;28;20452;-66
2024/03/11 02:29:58;;;;;;;9.95;4.78;;;;;;;-145.63;43.07;39035.97;5033211;28;20025;-65
2024/03/11 02:32:28;;;;;;;7.57;4.60;;;;;;;-145.63;42.94;39082.91;5034981;28;20060;-66
2024/03/11 02:34:59;;;;;;;8.02;4.38;;;;;;;-145.63;43.47;39035.97;5033141;28;20042;-66
2024/03/11 02:37:33;;;;;;;8.40;4.82;;;;;;;-145.63;42.96;39067.28;5034651;28;20414;-67
2024/03/11 02:40:09;;;;;;;7.20;4.72;;;;;;;-145.63;43.04;39055.53;5034329;28;20055;-65
2024/03/11 02:43:03;;;;;;;8.02;5.10;;;;;;;-145.63;42.66;39086.81;5033358;28;20037;-66
2024/03/11 02:45:39;;;;;;;7.80;4.43;;;;;;;-145.63;43.20;39073.13;5033916;28;20048;-66
2024/03/11 02:48:27;;;;;;;7.50;4.70;;;;;;;-145.63;42.79;39057.50;5032776;28;20045;-66
2024/03/11 02:51:02;;;;;;;7.82;4.55;;;;;;;-145.63;43.14;39063.34;5032724;28;20055;-66
2024/03/11 02:53:34;;;;;;;8.43;4.68;;;;;;;-145.63;42.94;39061.41;5013032;28;20065;-66
2024/03/11 02:56:08;;;;;;;9.73;5.40;;;;;;;-145.63;43.40;39075.09;5015802;28;20030;-66
2024/03/11 02:58:42;;;;;;;12.50;5.55;;;;;;;-145.63;43.31;39061.41;5034612;28;20025;-66
2024/03/11 03:01:08;;;;;;;9.50;4.93;;;;;;;-145.63;43.72;39125.94;5034259;28;20025;-67
2024/03/11 03:03:36;;;;;;;6.60;4.55;;;;;;;-145.63;43.87;39055.53;5033954;28;20036;-67
2024/03/11 03:06:20;;;;;;;8.52;4.90;;;;;;;-145.63;44.10;39079.00;5034276;28;20034;-65
2024/03/11 03:08:46;;;;;;;9.35;4.47;;;;;;;-145.63;43.95;39059.44;5034296;28;20061;-66
2024/03/11 03:11:24;;;;;;;7.47;4.50;;;;;;;-145.63;43.76;39053.59;5034201;28;20037;-67
2024/03/11 03:13:55;;;;;;;7.85;4.63;;;;;;;-145.63;44.14;39079.00;5031917;28;20060;-67
2024/03/11 03:16:27;;;;;;;;;;;;;;;-145.63;43.72;39065.31;5034181;28;20045;-66
2024/03/11 03:19:16;;;;;;;8.45;4.65;;;;;;;-145.63;43.97;39067.28;5033898;28;19919;-66
2024/03/11 03:21:41;;;;;;;5.85;4.35;;;;;;;-145.63;44.22;39051.63;5033512;28;20033;-66
2024/03/11 03:24:10;;;;;;;8.85;5.40;;;;;;;-145.63;44.01;39055.53;5042923;28;20485;-66
2024/03/11 03:26:36;;;;;;;9.82;4.78;;;;;;;-145.63;43.88;39024.25;5046093;28;20030;-66
2024/03/11 03:29:16;;;;;;;7.93;4.60;;;;;;;-145.63;44.36;39057.50;5061684;28;20412;-66
2024/03/11 03:32:00;;;;;;;7.10;4.65;;;;;;;-145.63;44.74;39061.41;5015564;28;20394;-66
2024/03/11 03:34:49;;;;;;;7.97;4.80;;;;;;;-145.63;45.24;39069.22;5025007;28;20386;-66
2024/03/11 03:37:34;;;;;;;11.73;4.78;;;;;;;-145.63;45.02;39057.50;5013722;28;20029;-66
2024/03/11 03:40:03;;;;;;;8.77;5.47;;;;;;;-145.63;45.06;39084.88;5030365;28;20033;-66
2024/03/11 03:45:59;;;;;;;7.95;4.57;;;;;;;-145.63;45.91;39067.28;5033591;28;20037;-66
2024/03/11 03:48:25;;;;;;;8.70;4.82;;;;;;;-145.63;45.96;39051.63;5033631;28;20033;-66
2024/03/11 03:50:52;;;;;;;7.63;5.10;;;;;;;-145.63;45.97;39039.88;5033365;28;20466;-66
2024/03/11 03:53:20;;;;;;;9.30;4.90;;;;;;;-145.63;46.07;39059.44;5032451;28;20390;-67
2024/03/11 03:56:07;;;;;;;8.60;4.78;;;;;;;-145.63;46.46;39049.66;5032298;28;20099;-67
2024/03/11 03:58:54;;;;;;;8.13;4.70;;;;;;;-145.63;46.67;39055.53;5033825;28;20477;-66
2024/03/11 04:01:26;;;;;;;8.30;5.10;;;;;;;-145.63;46.61;39037.94;5031142;28;20029;-64
2024/03/11 04:03:58;;;;;;;9.48;5.03;;;;;;;-145.63;46.30;39057.50;5033014;28;20037;-64
2024/03/11 04:06:36;;;;;;;7.70;4.90;;;;;;;-145.63;46.86;39055.53;5031698;28;20068;-65
2024/03/11 04:09:01;;;;;;;10.27;5.20;;;;;;;-145.63;46.68;39057.50;5032872;28;20037;-64
2024/03/11 04:11:33;;;;;;;9.55;5.07;;;;;;;-145.63;46.98;39090.75;5032884;28;20025;-63
2024/03/11 04:14:02;;;;;;;7.88;5.40;;;;;;;-145.63;47.05;39055.53;5032852;28;20113;-65
2024/03/11 04:16:43;;;;;;;10.48;5.43;;;;;;;-145.63;47.24;39055.53;5032484;28;20044;-64
2024/03/11 04:19:12;;;;;;;7.80;4.97;;;;;;;-145.63;47.11;39069.22;5032998;28;20029;-64
2024/03/11 04:25:16;;;;;;;8.35;4.65;;;;;;;-145.63;46.58;39086.81;5033101;28;20040;-67
2024/03/11 04:28:05;;;;;;;10.70;4.93;;;;;;;-145.63;46.86;39063.34;5033042;28;20041;-65
2024/03/11 04:30:47;;;;;;;13.50;5.15;;;;;;;-145.63;46.55;39053.59;5032571;28;20029;-66
2024/03/11 04:33:19;;;;;;;8.40;5.03;;;;;;;-145.63;46.69;39055.53;5031709;28;20041;-66
2024/03/11 04:36:06;;;;;;;8.40;5.10;;;;;;;-145.63;46.86;39032.06;5032307;28;20049;-65
2024/03/11 04:39:14;;;;;;;8.50;4.90;;;;;;;-145.63;46.65;39043.81;5031889;28;20072;-66
2024/03/11 04:41:42;;;;;;;11.63;5.70;;;;;;;-145.63;46.52;39032.06;5030774;28;20033;-65
2024/03/11 04:44:11;;;;;;;7.03;5.07;;;;;;;-145.63;46.66;39002.72;5032355;28;20108;-66
2024/03/11 04:46:45;;;;;;;8.40;5.05;;;;;;;-145.63;47.34;39030.13;5032186;28;20029;-66
2024/03/11 04:49:11;;;;;;;7.25;4.85;;;;;;;-145.63;47.26;39032.06;5031997;28;20025;-68
2024/03/11 04:51:39;;;;;;;6.95;4.70;;;;;;;-145.63;46.92;39032.06;5034540;28;20489;-68
2024/03/11 04:54:39;;;;;;;9.25;5.15;;;;;;;-145.63;47.30;39028.16;5034003;28;20052;-69
2024/03/11 04:59:56;;;;;;;7.80;5.20;;;;;;;-145.63;47.49;39032.06;5037509;28;20033;-67
2024/03/11 05:02:49;;;;;;;8.00;4.75;;;;;;;-145.63;47.49;39039.88;5040829;28;20037;-69
2024/03/11 05:05:24;;;;;;;6.90;4.40;;;;;;;-145.63;47.45;39047.72;5051754;28;20033;-67
2024/03/11 05:08:30;;;;;;;6.50;4.47;;;;;;;-145.63;47.32;39071.19;5034193;28;20051;-68
2024/03/11 05:11:36;;;;;;;7.82;4.53;;;;;;;-145.63;47.38;39037.94;5034723;28;20026;-67
2024/03/11 05:14:13;;;;;;;7.60;4.78;;;;;;;-145.63;47.21;39028.16;5035154;28;20041;-69
2024/03/11 05:16:38;;;;;;;7.70;5.07;;;;;;;-145.63;47.43;39022.28;5036198;28;20071;-68
2024/03/11 05:19:26;;;;;;;8.07;5.45;;;;;;;-145.63;47.57;39035.97;5036136;28;20405;-67
2024/03/11 05:22:07;;;;;;;6.15;4.78;;;;;;;-145.63;47.30;39034.03;5053821;28;20033;-68
2024/03/11 05:24:51;;;;;;;8.88;4.97;;;;;;;-145.63;47.07;39057.50;5041424;28;20075;-68
2024/03/11 05:27:23;;;;;;;9.70;5.15;;;;;;;-145.63;47.36;39004.69;5035801;28;20029;-66
2024/03/11 05:30:13;;;;;;;10.23;5.88;;;;;;;-145.63;46.31;39041.84;5034075;28;20386;-67
2024/03/11 05:32:42;;;;;;;8.25;4.90;;;;;;;-145.63;46.65;39071.19;5035687;28;20038;-67
2024/03/11 05:35:10;;;;;;;6.95;4.90;;;;;;;-145.63;46.64;39045.75;5035703;28;20049;-67
2024/03/11 05:37:39;;;;;;;12.02;5.90;;;;;;;-145.63;46.94;39055.53;5034591;28;20081;-68
2024/03/11 05:40:38;;;;;;;7.55;5.70;;;;;;;-145.63;46.17;39035.97;5034452;28;20029;-65
2024/03/11 05:43:27;;;;;;;6.90;5.32;;;;;;;-145.63;46.35;39014.47;5035673;28;20030;-68
2024/03/11 05:45:59;;;;;;;9.38;5.25;;;;;;;-145.63;46.65;39043.81;5034135;28;20033;-65
2024/03/11 05:48:33;;;;;;;11.60;7.38;;;;;;;-145.63;45.91;39059.44;5035700;28;20103;-66
2024/03/11 05:51:03;;;;;;;8.05;4.97;;;;;;;-145.63;46.02;39039.88;5035507;28;20037;-67
2024/03/11 05:53:37;;;;;;;15.30;6.03;;;;;;;-145.63;45.28;39053.59;5035384;28;20071;-66
2024/03/11 05:56:26;;;;;;;20.42;5.80;;;;;;;-145.63;46.04;39075.09;5034158;28;20037;-67
2024/03/11 05:59:15;;;;;;;11.40;5.18;;;;;;;-145.63;45.20;39067.28;5054894;28;20106;-66
2024/03/11 06:01:47;;;;;;;14.07;5.35;;;;;;;-145.63;45.64;39055.53;5013635;28;20025;-67
2024/03/11 06:04:12;;;;;;;12.23;5.50;;;;;;;-145.63;45.51;39051.63;5033667;28;20026;-67
2024/03/11 06:07:06;;;;;;;11.23;5.43;;;;;;;-145.63;45.30;39037.94;5035514;28;20037;-67
2024/03/11 06:09:38;;;;;;;7.93;4.85;;;;;;;-145.63;45.17;38889.31;5035659;28;20033;-66
2024/03/11 06:15:22;;;;;;;9.32;5.45;;;;;;;-145.63;44.00;39061.41;5035176;28;20036;-67
2024/03/11 06:17:50;;;;;;;6.97;4.80;;;;;;;-145.63;43.95;39084.88;5034637;28;20033;-66
2024/03/11 06:20:21;;;;;;;8.52;4.88;;;;;;;-145.63;44.64;39077.06;5033945;28;20466;-67
2024/03/11 06:23:02;;;;;;;8.32;4.70;;;;;;;-145.63;43.95;39123.97;5034699;28;20036;-67
2024/03/11 06:25:37;;;;;;;6.43;4.93;;;;;;;-145.63;43.82;39080.97;5015394;28;20482;-66
2024/03/11 06:28:05;;;;;;;11.32;4.88;;;;;;;-145.63;44.50;39108.34;5031824;28;20038;-66
2024/03/11 06:30:34;;;;;;;9.27;4.55;;;;;;;-145.63;44.27;39061.41;5046546;28;20067;-67
2024/03/11 06:33:37;;;;;;;10.63;5.45;;;;;;;-145.63;44.08;39061.41;5033463;28;20064;-67
2024/03/11 06:36:30;;;;;;;13.32;8.68;;;;;;;-145.63;43.95;39077.06;5034463;28;20067;-66
2024/03/11 06:39:02;;;;;;;14.40;6.32;;;;;;;-145.63;44.14;39082.91;5034383;28;20092;-65
2024/03/11 06:41:33;;;;;;;10.27;4.85;;;;;;;-145.63;43.68;39063.34;5034535;28;20025;-65
2024/03/11 06:44:05;;;;;;;8.18;5.15;;;;;;;-145.63;42.64;39067.28;5033299;28;20026;-67
2024/03/11 06:49:33;;;;;;;8.18;4.57;;;;;;;-145.63;40.55;38985.13;5031148;28;19995;-66
2024/03/11 06:52:11;;;;;;;9.20;4.68;;;;;;;-145.63;40.19;39016.44;5045523;28;20045;-66
2024/03/11 06:55:21;;;;;;;5.78;4.07;;;;;;;-145.63;38.79;39092.69;5034257;28;20056;-66
2024/03/11 06:58:11;;;;;;;6.50;4.05;;;;;;;-145.63;39.26;39159.19;5033659;28;20044;-66
2024/03/11 07:03:32;;;;;;;7.65;3.85;;;;;;;-145.63;37.76;39133.75;5045369;28;20423;-66
2024/03/11 07:06:04;;;;;;;5.35;4.03;;;;;;;-145.63;38.49;39129.84;5046287;28;20041;-67
2024/03/11 07:08:42;;;;;;;8.77;4.15;;;;;;;-145.63;38.52;39118.13;5034065;28;20033;-66
2024/03/11 07:11:08;;;;;;;7.30;4.47;;;;;;;-145.63;39.26;39145.50;5033932;28;20076;-66
2024/03/11 07:13:40;;;;;;;10.00;4.60;;;;;;;-145.63;38.42;39145.50;5032816;28;20029;-66
2024/03/11 07:16:11;;;;;;;6.32;4.70;;;;;;;-145.63;38.46;39143.53;5033758;28;20042;-66
2024/03/11 07:18:44;;;;;;;7.80;4.70;;;;;;;-145.63;38.52;39159.19;5032393;28;20037;-66
2024/03/11 07:21:28;;;;;;;8.25;4.38;;;;;;;-145.63;39.18;39143.53;5034113;28;20030;-66
2024/03/11 07:23:57;;;;;;;6.18;4.30;;;;;;;-145.63;37.95;39137.69;5033661;28;20045;-65
2024/03/11 07:26:26;;;;;;;10.07;4.78;;;;;;;-145.63;39.39;39149.41;5034162;28;20108;-66
2024/03/11 07:28:54;;;;;;;5.85;4.53;;;;;;;-145.63;38.60;39120.06;5033491;28;20033;-66
2024/03/11 07:31:41;;;;;;;7.43;4.35;;;;;;;-145.63;38.33;39163.09;5033537;28;20026;-66
2024/03/11 07:34:23;;;;;;;5.07;4.00;;;;;;;-145.63;39.48;39123.97;5032616;28;20061;-65
2024/03/11 07:36:49;;;;;;;6.80;3.80;;;;;;;-145.63;39.05;39125.94;5046417;28;20028;-66
2024/03/11 07:39:15;;;;;;;6.13;3.50;;;;;;;-145.63;38.82;39110.28;5042521;28;20041;-65
2024/03/11 07:41:55;;;;;;;5.25;3.50;;;;;;;-145.63;39.00;39122.03;5037836;28;20353;-68
2024/03/11 07:44:28;;;;;;;6.57;3.65;;;;;;;-145.63;39.80;39102.47;5050572;28;20775;-66
2024/03/11 07:47:08;;;;;;;8.32;3.95;;;;;;;-145.63;39.34;39131.81;5034685;28;20041;-65
2024/03/11 07:49:39;;;;;;;9.20;3.60;;;;;;;-145.63;38.55;39112.25;5014867;28;20092;-65
2024/03/11 07:52:20;;;;;;;10.07;3.95;;;;;;;-145.63;38.07;39122.03;5033434;28;20128;-67
2024/03/11 07:55:03;;;;;;;;;;;;;;;-145.63;38.94;39100.50;5033943;28;20068;-66
2024/03/11 07:57:29;;;;;;;9.13;3.45;;;;;;;-145.63;38.33;39149.41;5033574;28;19996;-65
2024/03/11 08:00:05;;;;;;;9.25;3.72;;;;;;;-145.63;37.61;39053.59;5033513;28;20246;-66
2024/03/11 08:02:34;;;;;;;10.40;4.38;;;;;;;-145.63;36.51;39024.25;5032372;28;20030;-67
2024/03/11 08:05:30;;;;;;;4.53;3.85;;;;;;;-145.63;35.75;39141.59;5031673;28;20052;-65
2024/03/11 08:08:08;;;;;;;6.47;3.75;;;;;;;-145.63;35.77;39153.31;5013358;28;20171;-66
2024/03/11 08:10:42;;;;;;;8.48;3.50;;;;;;;-145.63;36.68;39137.69;5013541;28;20021;-66
2024/03/11 08:13:39;;;;;;;9.25;4.03;;;;;;;-145.63;36.50;39118.13;5030242;28;20044;-66
2024/03/11 08:16:09;;;;;;;7.63;3.80;;;;;;;-145.63;36.75;39092.69;5032870;28;20037;-66
2024/03/11 08:19:19;;;;;;;4.13;3.20;;;;;;;-145.63;34.84;39116.16;5033516;28;20092;-66
2024/03/11 08:22:06;;;;;;;7.45;3.58;;;;;;;-145.63;35.61;39079.00;5031759;28;20454;-66
2024/03/11 08:24:43;;;;;;;9.77;4.30;;;;;;;-145.63;34.06;39102.47;5033287;28;20029;-66
2024/03/11 08:27:15;;;;;;;6.93;3.33;;;;;;;-145.63;32.89;39143.53;5037612;28;20049;-66
2024/03/11 08:29:43;;;;;;;7.50;4.10;;;;;;;-145.63;32.55;39145.50;5036941;28;20105;-67
2024/03/11 08:32:24;;;;;;;5.47;4.38;;;;;;;-145.63;33.74;39108.34;5037117;28;20042;-65
2024/03/11 08:35:30;;;;;;;9.70;4.15;;;;;;;-145.63;32.20;39092.69;5036687;28;20383;-66
2024/03/11 08:38:08;;;;;;;8.77;3.38;;;;;;;-145.63;32.72;39131.81;5016553;28;20033;-65
2024/03/11 08:40:43;;;;;;;7.82;4.65;;;;;;;-145.63;33.49;39145.50;5036397;28;20065;-65
2024/03/11 08:43:09;;;;;;;10.50;4.22;;;;;;;-145.63;34.40;39123.97;5036563;28;20032;-66
2024/03/11 08:45:45;;;;;;;8.02;4.15;;;;;;;-145.63;33.79;39141.59;5036958;28;20450;-66
2024/03/11 08:48:39;;;;;;;6.38;4.18;;;;;;;-145.63;33.56;39167.00;5037010;28;20025;-66
2024/03/11 08:51:08;;;;;;;9.13;4.05;;;;;;;-145.63;31.70;39161.13;5036232;28;20075;-66
2024/03/11 08:53:36;;;;;;;6.70;4.32;;;;;;;-145.63;31.70;39163.09;5036111;28;20033;-66
2024/03/11 08:56:05;;;;;;;11.48;4.25;;;;;;;-145.63;31.05;39165.06;5036865;28;20095;-66
2024/03/11 08:58:56;;;;;;;12.27;4.75;;;;;;;-145.63;31.61;39151.38;5036577;28;20029;-67
2024/03/11 09:01:33;;;;;;;7.77;4.50;;;;;;;-145.63;31.78;39180.69;5036268;28;20040;-66
2024/03/11 09:04:26;;;;;;;11.32;4.65;;;;;;;-145.63;32.14;39196.34;5035023;28;20056;-66
2024/03/11 09:07:13;;;;;;;9.35;4.30;;;;;;;-145.63;32.85;39206.13;5034781;28;20085;-66
2024/03/11 09:10:00;;;;;;;8.75;4.70;;;;;;;-145.63;32.66;39198.31;5036568;28;20113;-66
2024/03/11 09:12:26;;;;;;;11.05;4.13;;;;;;;-145.63;32.59;39208.06;5036297;28;20032;-66
2024/03/11 09:14:55;;;;;;;11.20;4.57;;;;;;;-145.63;34.41;39243.28;5035867;28;20482;-66
2024/03/11 09:17:33;;;;;;;5.70;4.43;;;;;;;-145.63;34.04;39208.06;5034931;28;20466;-69
2024/03/11 09:20:08;;;;;;;9.73;4.90;;;;;;;-145.63;34.15;39204.16;5035966;28;20525;-68
2024/03/11 09:22:42;;;;;;;7.43;4.20;;;;;;;-145.63;33.67;39172.88;5036372;28;20029;-67
2024/03/11 09:25:24;;;;;;;9.70;4.97;;;;;;;-145.63;34.70;39212.00;5036146;28;20037;-66
2024/03/11 09:27:53;;;;;;;;;;;;;;;-145.63;34.81;39194.38;5036244;28;20037;-65
2024/03/11 09:30:36;;;;;;;9.85;4.90;;;;;;;-145.63;35.50;39200.25;5035665;28;19919;-68
2024/03/11 09:33:11;;;;;;;9.18;4.10;;;;;;;-145.63;35.65;39204.16;5016223;28;20030;-67
2024/03/11 09:35:47;;;;;;;8.15;4.72;;;;;;;-145.63;35.50;39198.31;5017514;28;20072;-69
2024/03/11 09:38:13;;;;;;;9.45;4.85;;;;;;;-145.63;35.24;39194.38;5033643;28;20033;-67
2024/03/11 09:40:38;;;;;;;6.53;4.15;;;;;;;-145.63;35.48;39168.97;5035832;28;20040;-68
2024/03/11 09:43:41;;;;;;;6.93;4.50;;;;;;;-145.63;36.70;39200.25;5035249;28;20520;-67
2024/03/11 09:46:47;;;;;;;6.63;4.85;;;;;;;-145.63;35.89;39182.66;5035616;28;20040;-67
2024/03/11 09:49:20;;;;;;;7.88;4.80;;;;;;;-145.63;36.29;39204.16;5033879;28;20033;-67
2024/03/11 09:51:47;;;;;;;7.85;4.25;;;;;;;-145.63;36.75;39145.50;5034959;28;20045;-68
2024/03/11 09:54:36;;;;;;;5.78;4.85;;;;;;;-145.63;35.49;39208.06;5035339;28;20026;-66
2024/03/11 09:57:06;;;;;;;7.68;4.80;;;;;;;-145.63;35.79;39192.44;5035499;28;20044;-67
2024/03/11 09:59:51;;;;;;;7.57;4.85;;;;;;;-145.63;35.64;39176.78;5066823;28;20033;-66
2024/03/11 10:02:26;;;;;;;10.35;4.75;;;;;;;-145.63;35.07;39204.16;5035377;28;20079;-66
2024/03/11 10:05:16;;;;;;;15.50;4.65;;;;;;;-145.63;34.98;39255.00;5033929;28;20057;-67
2024/03/11 10:08:04;;;;;;;8.30;5.10;;;;;;;-145.63;36.06;39212.00;5014285;28;20061;-66
2024/03/11 10:10:35;;;;;;;5.03;4.25;;;;;;;-145.63;35.88;39198.31;5033390;28;20079;-65
2024/03/11 10:16:21;;;;;;;8.15;4.95;;;;;;;-145.63;34.98;39202.22;5034417;28;20030;-66
2024/03/11 10:19:21;;;;;;;9.35;5.10;;;;;;;-145.63;36.22;39196.34;5033584;28;20025;-65
2024/03/11 10:22:21;;;;;;;11.90;4.90;;;;;;;-145.63;34.91;39217.84;5033612;28;20025;-66
2024/03/11 10:25:06;;;;;;;8.88;4.57;;;;;;;-145.63;35.11;39165.06;5034786;28;20040;-66
2024/03/11 10:27:40;;;;;;;8.25;4.78;;;;;;;-145.63;35.75;39196.34;5034722;28;20112;-66
2024/03/11 10:30:20;;;;;;;9.80;4.90;;;;;;;-145.63;35.86;39194.38;5034695;28;20040;-65
2024/03/11 10:33:08;;;;;;;10.50;5.45;;;;;;;-145.63;35.76;39196.34;5034795;28;20113;-67
2024/03/11 10:35:34;;;;;;;8.25;4.57;;;;;;;-145.63;35.23;39208.06;5034973;28;20099;-66
2024/03/11 10:38:13;;;;;;;6.45;4.57;;;;;;;-145.63;34.83;39196.34;5034638;28;20037;-65
2024/03/11 10:40:49;;;;;;;9.60;5.43;;;;;;;-145.63;35.36;39194.38;5034430;28;20029;-65
2024/03/11 10:43:25;;;;;;;9.40;4.88;;;;;;;-145.63;34.55;39219.81;5034304;28;20036;-65
2024/03/11 10:45:51;;;;;;;11.00;5.07;;;;;;;-145.63;34.97;39196.34;5033938;28;20116;-64
2024/03/11 10:48:20;;;;;;;8.13;4.57;;;;;;;-145.63;35.27;39215.91;5032916;28;20327;-66
2024/03/11 10:51:29;;;;;;;8.55;5.07;;;;;;;-145.63;36.06;39233.50;5033866;28;20451;-65
2024/03/11 10:54:05;;;;;;;8.27;4.70;;;;;;;-145.63;35.44;39212.00;5034128;28;20061;-65
2024/03/11 11:00:10;;;;;;;9.05;4.93;;;;;;;-145.63;34.57;39217.84;5034505;28;20036;-66
2024/03/11 11:02:38;;;;;;;9.32;5.00;;;;;;;-145.63;35.15;39212.00;5032884;28;20045;-65
2024/03/11 11:05:32;;;;;;;9.25;4.35;;;;;;;-145.63;34.65;39198.31;5034662;28;20534;-65
2024/03/11 11:08:05;;;;;;;7.47;4.57;;;;;;;-145.63;35.04;39135.72;5033744;28;20064;-65
2024/03/11 11:10:51;;;;;;;10.02;4.88;;;;;;;-145.63;34.89;39153.31;5034231;28;20164;-65
2024/03/11 11:16:37;;;;;;;9.52;5.05;;;;;;;-145.63;35.61;39245.25;5033872;28;20496;-65
2024/03/11 11:19:23;;;;;;;8.73;4.90;;;;;;;-145.63;33.83;39223.72;5033517;28;20031;-64
2024/03/11 11:21:50;;;;;;;9.10;4.90;;;;;;;-145.63;35.00;39217.84;5033756;28;20036;-65
2024/03/11 11:24:30;;;;;;;10.60;5.63;;;;;;;-145.63;34.45;39249.16;5031957;28;20064;-65
2024/03/11 11:27:15;;;;;;;8.73;5.55;;;;;;;-145.63;34.81;39247.19;5032923;28;20083;-65
2024/03/11 11:33:34;;;;;;;9.95;5.13;;;;;;;-145.63;33.94;39202.22;5013518;28;20029;-66
2024/03/11 11:36:31;;;;;;;6.93;5.15;;;;;;;-145.63;33.64;39235.47;5029045;28;20067;-69
2024/03/11 11:39:20;;;;;;;10.10;5.63;;;;;;;-145.63;34.29;39235.47;5047993;28;20405;-67
2024/03/11 11:42:06;;;;;;;6.78;4.38;;;;;;;-145.63;33.79;39239.38;5032985;28;20095;-67
2024/03/11 11:44:44;;;;;;;6.82;4.75;;;;;;;-145.63;34.45;39219.81;5033168;28;20481;-67
2024/03/11 11:47:15;;;;;;;8.93;4.70;;;;;;;-145.63;33.74;39227.63;5065633;28;20033;-67
2024/03/11 11:50:20;;;;;;;8.93;4.50;;;;;;;-145.63;34.01;39221.78;5017179;28;20394;-67
2024/03/11 11:53:12;;;;;;;8.68;4.55;;;;;;;-145.63;34.90;39241.31;5013176;28;20030;-65
2024/03/11 11:56:00;;;;;;;7.85;4.53;;;;;;;-145.63;34.65;39219.81;5030182;28;20029;-65
2024/03/11 11:58:26;;;;;;;9.35;5.03;;;;;;;-145.63;34.62;39219.81;5033366;28;20044;-64
2024/03/11 12:01:12;;;;;;;10.63;5.07;;;;;;;-145.63;34.59;39256.97;5032495;28;20041;-64
2024/03/11 12:03:56;;;;;;;6.50;4.13;;;;;;;-145.63;34.95;39223.72;5033286;28;20112;-64
2024/03/11 12:06:50;;;;;;;8.90;4.63;;;;;;;-145.63;34.31;39247.19;5033105;28;20033;-65
2024/03/11 12:09:19;;;;;;;9.05;4.35;;;;;;;-145.63;33.99;39233.50;5032759;28;20030;-65
2024/03/11 12:11:50;;;;;;;7.32;4.55;;;;;;;-145.63;34.80;39225.69;5032620;28;20032;-65
2024/03/11 12:14:17;;;;;;;8.18;4.65;;;;;;;-145.63;34.85;39225.69;5032602;28;20064;-65
2024/03/11 12:16:46;;;;;;;5.32;4.30;;;;;;;-145.63;34.09;39245.25;5032897;28;20128;-65
2024/03/11 12:19:36;;;;;;;8.77;4.40;;;;;;;-145.63;34.13;39227.63;5032678;28;20055;-65
2024/03/11 12:22:02;;;;;;;6.93;3.83;;;;;;;-145.63;33.57;39247.19;5032394;28;20034;-65
2024/03/11 12:24:42;;;;;;;8.38;4.38;;;;;;;-145.63;33.60;39260.88;5032686;28;20061;-66
2024/03/11 12:27:20;;;;;;;5.63;3.88;;;;;;;-145.63;33.74;39274.56;5032785;28;20030;-65
2024/03/11 12:30:16;;;;;;;7.32;4.75;;;;;;;-145.63;34.07;39253.06;5032228;28;20112;-65
2024/03/11 12:33:08;;;;;;;5.88;4.05;;;;;;;-145.63;34.25;39249.16;5032855;28;20034;-64
2024/03/11 12:35:43;;;;;;;9.57;4.03;;;;;;;-145.63;34.25;39237.41;5032508;28;20064;-65
2024/03/11 12:38:32;;;;;;;5.55;4.28;;;;;;;-145.63;33.40;39256.97;5032782;28;20029;-65
2024/03/11 12:41:07;;;;;;;9.95;4.22;;;;;;;-145.63;34.78;39251.09;5013418;28;20354;-65